Time;durP1;ratioP1;P1;durP2;ratioP2;P2;SDS_P1;SDS_P2;PMS_P1;PMS_P2;Temp;Humidity;BMP_temperature;BMP_pressure;BME280_temperature;BME280_humidity;BME280_pressure;Samples;Min_cycle;Max_cycle;Signal;HPM_P1;HPM_P2
2022/07/26 00:00:49;;;;;;;2.08;0.40;;;15.60;99.90;;;;;;5009617;22;20046;-78
2022/07/26 00:03:15;;;;;;;0.90;0.50;;;15.50;99.90;;;;;;4992524;28;20045;-77
2022/07/26 00:05:42;;;;;;;0.30;0.30;;;15.50;99.90;;;;;;4993498;28;20100;-78
2022/07/26 00:08:10;;;;;;;1.20;0.40;;;15.50;99.90;;;;;;5008213;28;20088;-77
2022/07/26 00:10:47;;;;;;;1.48;0.30;;;15.40;99.90;;;;;;4993519;28;20498;-78
2022/07/26 00:13:16;;;;;;;1.80;0.30;;;15.20;99.90;;;;;;4987584;28;20030;-78
2022/07/26 00:15:43;;;;;;;0.40;0.40;;;15.10;99.90;;;;;;4992395;28;20573;-78
2022/07/26 00:18:09;;;;;;;2.13;0.63;;;15.10;99.90;;;;;;4992540;28;20038;-78
2022/07/26 00:20:35;;;;;;;6.97;0.80;;;15.10;99.90;;;;;;4993267;28;20037;-78
2022/07/26 00:23:01;;;;;;;0.22;0.22;;;15.00;99.90;;;;;;4993201;28;20026;-78
2022/07/26 00:25:27;;;;;;;0.40;0.40;;;14.90;99.90;;;;;;4992679;28;20539;-78
2022/07/26 00:27:53;;;;;;;0.50;0.30;;;14.80;99.90;;;;;;4993154;28;20101;-78
2022/07/26 00:30:19;;;;;;;1.30;0.45;;;14.80;99.90;;;;;;4992401;28;20110;-78
2022/07/26 00:32:45;;;;;;;0.40;0.40;;;14.70;99.90;;;;;;4992744;28;20022;-78
2022/07/26 00:35:11;;;;;;;1.40;0.43;;;14.60;99.90;;;;;;4992866;28;20022;-78
2022/07/26 00:37:38;;;;;;;1.60;0.85;;;14.60;99.90;;;;;;4992378;28;20029;-78
2022/07/26 00:40:04;;;;;;;0.63;0.40;;;14.60;99.90;;;;;;4992272;28;20104;-78
2022/07/26 00:42:30;;;;;;;2.28;0.40;;;14.50;99.90;;;;;;4992258;28;20057;-78
2022/07/26 00:44:56;;;;;;;0.47;0.40;;;14.40;99.90;;;;;;4992530;28;20050;-78
2022/07/26 00:47:22;;;;;;;1.65;0.40;;;14.40;99.90;;;;;;4992068;28;20116;-77
2022/07/26 00:49:47;;;;;;;0.93;0.50;;;14.30;99.90;;;;;;4992080;28;20027;-78
2022/07/26 00:52:13;;;;;;;1.05;0.95;;;14.20;99.90;;;;;;4992347;28;20022;-78
2022/07/26 00:54:45;;;;;;;1.58;0.60;;;14.10;99.90;;;;;;4992013;28;20254;-77
2022/07/26 00:57:12;;;;;;;2.50;0.57;;;14.00;99.90;;;;;;4990970;28;20078;-77
2022/07/26 00:59:39;;;;;;;0.65;0.60;;;14.00;99.90;;;;;;4992577;28;20109;-78
2022/07/26 01:02:19;;;;;;;1.90;0.68;;;14.00;99.90;;;;;;4989479;28;20514;-77
2022/07/26 01:04:46;;;;;;;0.40;0.40;;;13.80;99.90;;;;;;4992019;28;20097;-78
2022/07/26 01:07:13;;;;;;;1.30;0.70;;;13.80;99.90;;;;;;4992095;28;20022;-78
2022/07/26 01:09:39;;;;;;;1.05;0.73;;;13.70;99.90;;;;;;4992205;28;20391;-78
2022/07/26 01:12:05;;;;;;;0.75;0.70;;;13.70;99.90;;;;;;5006521;28;20027;-78
2022/07/26 01:14:31;;;;;;;0.50;0.50;;;13.70;99.90;;;;;;4991881;28;20087;-78
2022/07/26 01:16:57;;;;;;;1.35;0.60;;;13.80;99.90;;;;;;4991468;28;20062;-78
2022/07/26 01:19:23;;;;;;;0.82;0.60;;;13.80;99.90;;;;;;4991487;28;20039;-78
2022/07/26 01:21:50;;;;;;;0.50;0.50;;;13.80;99.90;;;;;;4991593;28;20022;-78
2022/07/26 01:24:17;;;;;;;3.60;0.50;;;13.80;99.90;;;;;;4991913;28;20029;-78
2022/07/26 01:26:43;;;;;;;0.60;0.60;;;13.80;99.90;;;;;;4992009;28;20068;-78
2022/07/26 01:29:10;;;;;;;0.52;0.40;;;13.80;99.90;;;;;;4991759;28;20479;-78
2022/07/26 01:31:36;;;;;;;0.60;0.45;;;13.80;99.90;;;;;;4991038;28;20022;-78
2022/07/26 01:34:02;;;;;;;1.38;0.60;;;13.80;99.90;;;;;;4991636;28;20017;-78
2022/07/26 01:36:28;;;;;;;2.65;0.73;;;13.80;99.90;;;;;;4991153;28;20026;-78
2022/07/26 01:38:53;;;;;;;0.63;0.50;;;13.70;99.90;;;;;;4990099;28;20050;-78
2022/07/26 01:41:19;;;;;;;1.08;0.47;;;13.70;99.90;;;;;;4991556;28;20101;-78
2022/07/26 01:43:45;;;;;;;2.40;0.55;;;13.60;99.90;;;;;;4991309;28;20026;-78
2022/07/26 01:46:12;;;;;;;1.15;0.80;;;13.50;99.90;;;;;;4991175;28;20018;-78
2022/07/26 01:48:38;;;;;;;0.57;0.57;;;13.50;99.90;;;;;;4991537;28;20018;-78
2022/07/26 01:51:04;;;;;;;0.50;0.50;;;13.50;99.90;;;;;;4990709;28;20014;-78
2022/07/26 01:53:30;;;;;;;1.80;0.68;;;13.50;99.90;;;;;;4990721;28;20411;-78
2022/07/26 01:55:56;;;;;;;3.08;0.70;;;13.60;99.90;;;;;;4991645;28;20015;-78
2022/07/26 01:58:22;;;;;;;1.85;0.65;;;13.60;99.90;;;;;;4991096;28;20037;-78
2022/07/26 02:00:48;;;;;;;5.22;0.80;;;13.60;99.90;;;;;;5022547;22;20116;-75
2022/07/26 02:03:14;;;;;;;0.60;0.50;;;13.70;99.90;;;;;;5011463;28;20029;-75
2022/07/26 02:05:39;;;;;;;0.85;0.50;;;13.80;99.90;;;;;;5010788;28;20022;-75
2022/07/26 02:08:05;;;;;;;1.20;0.60;;;13.80;99.90;;;;;;5010988;28;20613;-75
2022/07/26 02:13:16;;;;;;;0.75;0.68;;;13.90;99.90;;;;;;5011364;28;20100;-74
2022/07/26 02:15:41;;;;;;;0.50;0.50;;;14.00;99.90;;;;;;5010390;28;20621;-75
2022/07/26 02:18:08;;;;;;;0.60;0.60;;;14.00;99.90;;;;;;5010603;28;20088;-75
2022/07/26 02:20:34;;;;;;;0.40;0.40;;;14.10;99.90;;;;;;5010682;28;20084;-75
2022/07/26 02:23:00;;;;;;;0.52;0.47;;;14.10;99.90;;;;;;5010431;28;20068;-75
2022/07/26 02:25:26;;;;;;;1.60;0.70;;;14.20;99.90;;;;;;5012929;28;20057;-75
2022/07/26 02:27:52;;;;;;;4.70;0.50;;;14.20;99.90;;;;;;5014779;28;20057;-74
2022/07/26 02:30:18;;;;;;;0.82;0.50;;;14.20;99.90;;;;;;5014001;28;20032;-75
2022/07/26 02:32:43;;;;;;;1.98;0.90;;;14.20;99.90;;;;;;5014195;28;20061;-74
2022/07/26 02:35:10;;;;;;;2.83;0.60;;;14.20;99.90;;;;;;5014633;28;20080;-75
2022/07/26 02:37:36;;;;;;;0.55;0.55;;;14.20;99.90;;;;;;5013043;28;20030;-76
2022/07/26 02:40:02;;;;;;;2.63;0.68;;;14.20;99.90;;;;;;5014439;28;20030;-75
2022/07/26 02:42:28;;;;;;;1.55;0.73;;;14.20;99.90;;;;;;5014651;28;20026;-75
2022/07/26 02:44:53;;;;;;;0.95;0.80;;;14.20;99.90;;;;;;5014291;28;20022;-75
2022/07/26 02:47:19;;;;;;;4.43;0.70;;;14.20;99.90;;;;;;5014204;28;20065;-75
2022/07/26 02:49:45;;;;;;;2.63;0.57;;;14.30;99.90;;;;;;5014182;28;20390;-76
2022/07/26 02:52:11;;;;;;;2.50;0.50;;;14.30;99.90;;;;;;5014601;28;20022;-76
2022/07/26 02:54:37;;;;;;;1.92;0.63;;;14.30;99.90;;;;;;5014365;28;20475;-75
2022/07/26 02:57:03;;;;;;;0.43;0.43;;;14.40;99.90;;;;;;5014194;28;20066;-75
2022/07/26 02:59:29;;;;;;;1.20;0.50;;;14.40;99.90;;;;;;5007251;28;20022;-75
2022/07/26 03:01:55;;;;;;;3.40;0.82;;;14.50;99.90;;;;;;5050116;23;20087;-78
2022/07/26 03:04:20;;;;;;;0.55;0.55;;;14.50;99.90;;;;;;5033287;28;20037;-78
2022/07/26 03:06:46;;;;;;;1.10;0.70;;;14.50;99.90;;;;;;5033650;28;20021;-78
2022/07/26 03:09:12;;;;;;;0.60;0.60;;;14.60;99.90;;;;;;5033582;28;20057;-78
2022/07/26 03:11:38;;;;;;;0.40;0.40;;;14.60;99.90;;;;;;5033103;28;20025;-78
2022/07/26 03:14:04;;;;;;;1.73;0.63;;;14.60;99.90;;;;;;5033186;28;20117;-78
2022/07/26 03:16:30;;;;;;;2.15;0.40;;;14.60;99.90;;;;;;5032947;28;20568;-78
2022/07/26 03:18:56;;;;;;;0.45;0.40;;;14.60;99.90;;;;;;5033025;28;20030;-78
2022/07/26 03:21:22;;;;;;;0.57;0.50;;;14.70;99.90;;;;;;5033335;28;20061;-78
2022/07/26 03:23:48;;;;;;;6.75;0.80;;;14.70;99.90;;;;;;5032817;28;20065;-78
2022/07/26 03:26:14;;;;;;;1.23;0.68;;;14.70;99.90;;;;;;5032963;28;20030;-78
2022/07/26 03:28:43;;;;;;;0.57;0.50;;;14.80;99.90;;;;;;5033347;28;20018;-78
2022/07/26 03:31:10;;;;;;;5.97;0.55;;;14.80;99.90;;;;;;5033946;28;20029;-78
2022/07/26 03:33:36;;;;;;;0.98;0.50;;;14.90;99.90;;;;;;5032625;28;20108;-78
2022/07/26 03:36:02;;;;;;;1.17;0.52;;;14.90;99.90;;;;;;5032372;28;20108;-77
2022/07/26 03:38:27;;;;;;;2.55;0.75;;;14.90;99.90;;;;;;5032833;28;20186;-78
2022/07/26 03:40:53;;;;;;;2.05;0.47;;;15.00;99.90;;;;;;5032856;28;20040;-78
2022/07/26 03:43:19;;;;;;;1.08;0.40;;;15.00;99.90;;;;;;5033180;28;20033;-78
2022/07/26 03:45:45;;;;;;;0.70;0.50;;;15.00;99.90;;;;;;5032145;28;20552;-78
2022/07/26 03:48:11;;;;;;;2.28;0.55;;;15.20;99.90;;;;;;5032195;28;20028;-78
2022/07/26 03:50:36;;;;;;;1.30;0.50;;;15.20;99.90;;;;;;5032819;28;20026;-78
2022/07/26 03:53:03;;;;;;;0.47;0.40;;;15.20;99.90;;;;;;5032245;28;20025;-79
2022/07/26 03:58:13;;;;;;;3.78;0.70;;;15.40;99.90;;;;;;5035985;28;20398;-78
2022/07/26 04:00:39;;;;;;;0.98;0.45;;;15.40;99.90;;;;;;5049546;23;20513;-75
2022/07/26 04:03:05;;;;;;;2.83;0.45;;;15.40;99.90;;;;;;5005785;28;20467;-74
2022/07/26 04:05:30;;;;;;;0.43;0.43;;;15.40;99.90;;;;;;5011511;28;20026;-74
2022/07/26 04:07:56;;;;;;;1.30;0.70;;;15.50;99.90;;;;;;5012375;28;20022;-74
2022/07/26 04:10:22;;;;;;;0.45;0.40;;;15.50;99.90;;;;;;5010888;28;20578;-74
2022/07/26 04:12:49;;;;;;;1.55;0.40;;;15.50;99.90;;;;;;5011861;28;20066;-74
2022/07/26 04:15:15;;;;;;;3.35;0.68;;;15.60;99.90;;;;;;5011572;28;20025;-75
2022/07/26 04:17:42;;;;;;;1.63;0.55;;;15.60;99.90;;;;;;4994030;28;20034;-75
2022/07/26 04:20:09;;;;;;;0.57;0.57;;;15.60;99.90;;;;;;4994008;28;20093;-74
2022/07/26 04:22:36;;;;;;;1.08;0.40;;;15.50;99.90;;;;;;4994175;28;20055;-74
2022/07/26 04:25:03;;;;;;;1.05;0.93;;;15.60;99.90;;;;;;4993738;28;20066;-74
2022/07/26 04:27:30;;;;;;;2.45;0.95;;;15.50;99.90;;;;;;4993246;28;20066;-74
2022/07/26 04:29:55;;;;;;;1.65;0.50;;;15.50;99.90;;;;;;4993636;28;20022;-75
2022/07/26 04:32:21;;;;;;;2.40;0.60;;;15.50;99.90;;;;;;4993475;28;20030;-74
2022/07/26 04:34:47;;;;;;;0.60;0.32;;;15.50;99.90;;;;;;4993626;28;20073;-75
2022/07/26 04:37:13;;;;;;;1.90;0.68;;;15.50;99.90;;;;;;4993406;28;20113;-74
2022/07/26 04:39:38;;;;;;;0.85;0.50;;;15.60;99.90;;;;;;4992205;28;20022;-74
2022/07/26 04:42:04;;;;;;;1.17;0.38;;;15.60;99.90;;;;;;4993339;28;20022;-74
2022/07/26 04:44:30;;;;;;;1.95;0.85;;;15.60;99.90;;;;;;4993408;28;20046;-74
2022/07/26 04:46:56;;;;;;;1.73;0.80;;;15.70;99.90;;;;;;4991789;28;20027;-75
2022/07/26 04:49:21;;;;;;;1.83;0.57;;;15.70;99.90;;;;;;4993381;28;20038;-74
2022/07/26 04:51:47;;;;;;;1.60;0.70;;;15.80;99.90;;;;;;4993278;28;20491;-74
2022/07/26 04:54:19;;;;;;;1.95;0.90;;;15.80;99.90;;;;;;4991880;28;20049;-74
2022/07/26 04:56:45;;;;;;;4.13;0.60;;;15.80;99.90;;;;;;5011255;28;20006;-74
2022/07/26 04:59:10;;;;;;;1.60;0.70;;;15.90;99.90;;;;;;5011002;28;20029;-74
2022/07/26 05:01:36;;;;;;;1.17;0.60;;;15.90;99.90;;;;;;5028771;22;20132;-79
2022/07/26 05:04:02;;;;;;;2.40;0.68;;;16.00;99.90;;;;;;5010670;28;20498;-78
2022/07/26 05:06:28;;;;;;;3.13;0.60;;;16.00;99.90;;;;;;5010782;28;20073;-78
2022/07/26 05:08:54;;;;;;;3.72;0.52;;;16.00;99.90;;;;;;5010682;28;20532;-78
2022/07/26 05:11:19;;;;;;;1.27;0.77;;;16.00;99.90;;;;;;5010838;28;20097;-78
2022/07/26 05:13:45;;;;;;;1.55;0.50;;;16.10;99.90;;;;;;5010411;28;20024;-78
2022/07/26 05:16:11;;;;;;;1.02;0.50;;;16.10;99.90;;;;;;5010124;28;20024;-78
2022/07/26 05:18:36;;;;;;;2.25;0.60;;;16.20;99.90;;;;;;5010858;28;20069;-79
2022/07/26 05:21:02;;;;;;;2.78;0.50;;;16.30;99.90;;;;;;5010444;28;20105;-78
2022/07/26 05:23:28;;;;;;;3.38;0.70;;;16.30;99.90;;;;;;5010580;28;20109;-78
2022/07/26 05:25:55;;;;;;;4.68;0.98;;;16.40;99.90;;;;;;5011089;28;20025;-78
2022/07/26 05:28:20;;;;;;;2.92;0.60;;;16.40;99.90;;;;;;5010360;28;20025;-78
2022/07/26 05:30:46;;;;;;;0.75;0.40;;;16.40;99.90;;;;;;5009758;28;20113;-79
2022/07/26 05:33:12;;;;;;;1.30;0.70;;;16.50;99.90;;;;;;4991999;28;20712;-79
2022/07/26 05:35:37;;;;;;;1.67;0.63;;;16.60;99.90;;;;;;4992419;28;20018;-79
2022/07/26 05:38:03;;;;;;;1.17;0.40;;;16.70;99.90;;;;;;4992109;28;20617;-79
2022/07/26 05:40:29;;;;;;;1.67;0.70;;;16.80;99.90;;;;;;4992417;28;20018;-79
2022/07/26 05:42:55;;;;;;;2.70;0.60;;;16.80;99.90;;;;;;4992044;28;20487;-78
2022/07/26 05:45:20;;;;;;;4.50;1.08;;;16.90;99.90;;;;;;4992383;28;20118;-80
2022/07/26 05:47:49;;;;;;;1.67;0.68;;;17.00;99.90;;;;;;4991939;28;20050;-79
2022/07/26 05:50:15;;;;;;;4.68;0.93;;;17.10;99.90;;;;;;4992216;28;20502;-80
2022/07/26 05:52:40;;;;;;;1.63;0.55;;;17.20;99.90;;;;;;4991806;28;20030;-79
2022/07/26 05:55:07;;;;;;;3.47;0.70;;;17.20;99.90;;;;;;4991716;28;20023;-78
2022/07/26 05:57:32;;;;;;;3.45;1.15;;;17.30;99.90;;;;;;4991864;28;20026;-79
2022/07/26 06:02:35;;;;;;;1.73;0.65;;;17.40;99.90;;;;;;5008106;28;20073;-78
2022/07/26 06:05:01;;;;;;;3.28;0.95;;;17.40;99.90;;;;;;5011251;28;20064;-78
2022/07/26 06:07:27;;;;;;;3.40;0.50;;;17.50;99.90;;;;;;5010619;28;20140;-78
2022/07/26 06:09:52;;;;;;;2.45;0.70;;;17.60;99.90;;;;;;5009641;28;20045;-79
2022/07/26 06:12:18;;;;;;;2.28;0.60;;;17.60;99.90;;;;;;5010922;28;20041;-78
2022/07/26 06:14:44;;;;;;;4.18;0.80;;;17.60;99.90;;;;;;5010997;28;20028;-78
2022/07/26 06:17:10;;;;;;;1.20;0.68;;;17.70;99.90;;;;;;5010303;28;20120;-78
2022/07/26 06:19:36;;;;;;;4.13;0.98;;;17.70;99.90;;;;;;5010824;28;20021;-78
2022/07/26 06:22:01;;;;;;;2.65;0.60;;;17.80;99.90;;;;;;5010872;28;20507;-78
2022/07/26 06:24:27;;;;;;;1.60;0.70;;;17.90;99.90;;;;;;5010572;28;20029;-78
2022/07/26 06:26:54;;;;;;;1.55;0.60;;;18.00;99.90;;;;;;5010454;28;20029;-79
2022/07/26 06:29:20;;;;;;;2.53;0.75;;;18.10;99.90;;;;;;5008768;28;20022;-78
2022/07/26 06:31:46;;;;;;;3.35;0.82;;;18.10;99.90;;;;;;5002691;28;20046;-77
2022/07/26 06:34:11;;;;;;;4.15;0.98;;;18.20;99.90;;;;;;5004236;28;20029;-79
2022/07/26 06:36:37;;;;;;;2.25;0.60;;;18.30;99.90;;;;;;5009798;28;20682;-79
2022/07/26 06:39:03;;;;;;;1.45;0.50;;;18.50;99.90;;;;;;5010167;28;20037;-78
2022/07/26 06:41:29;;;;;;;1.70;0.70;;;18.70;99.90;;;;;;5010379;28;20475;-79
2022/07/26 06:43:54;;;;;;;1.33;0.60;;;18.80;99.90;;;;;;5010101;28;20018;-78
2022/07/26 06:46:20;;;;;;;2.97;0.65;;;19.00;99.90;;;;;;5008389;28;20471;-80
2022/07/26 06:48:47;;;;;;;5.50;0.98;;;19.10;99.90;;;;;;5009954;28;20014;-79
2022/07/26 06:51:13;;;;;;;3.45;0.85;;;19.10;99.90;;;;;;5009837;28;20030;-79
2022/07/26 06:53:39;;;;;;;3.90;0.70;;;19.00;99.90;;;;;;5010333;28;20044;-79
2022/07/26 06:56:05;;;;;;;2.28;0.95;;;19.00;99.90;;;;;;5010713;28;20022;-79
2022/07/26 06:58:30;;;;;;;1.23;0.65;;;19.00;99.90;;;;;;5005762;28;20026;-79
2022/07/26 07:00:56;;;;;;;2.05;0.70;;;18.90;99.90;;;;;;5026354;23;20152;-80
2022/07/26 07:03:22;;;;;;;2.22;0.70;;;19.00;99.90;;;;;;5023731;28;20545;-81
2022/07/26 07:05:47;;;;;;;7.40;0.90;;;19.10;99.90;;;;;;5017730;28;20125;-81
2022/07/26 07:08:14;;;;;;;2.50;0.77;;;19.10;99.90;;;;;;5013746;28;20510;-81
2022/07/26 07:10:40;;;;;;;2.67;0.73;;;19.20;99.90;;;;;;5020752;28;20025;-80
2022/07/26 07:13:05;;;;;;;1.75;0.60;;;19.10;99.90;;;;;;5019195;28;20032;-80
2022/07/26 07:15:31;;;;;;;2.95;0.90;;;19.20;99.90;;;;;;5014683;28;20365;-80
2022/07/26 07:17:57;;;;;;;1.13;0.93;;;19.20;99.90;;;;;;5011991;28;20058;-80
2022/07/26 07:20:23;;;;;;;3.53;1.15;;;19.40;99.90;;;;;;5012336;28;20041;-81
2022/07/26 07:22:48;;;;;;;2.00;0.85;;;19.40;99.90;;;;;;5010688;28;20095;-81
2022/07/26 07:25:14;;;;;;;2.35;1.00;;;19.30;99.90;;;;;;5003418;28;20034;-81
2022/07/26 07:27:40;;;;;;;3.08;1.05;;;19.50;99.90;;;;;;5004195;28;20029;-81
2022/07/26 07:30:09;;;;;;;2.20;0.70;;;19.40;99.90;;;;;;5014022;28;20029;-80
2022/07/26 07:32:35;;;;;;;1.88;0.80;;;19.20;99.90;;;;;;5013107;28;20046;-81
2022/07/26 07:35:01;;;;;;;3.33;0.82;;;19.20;99.90;;;;;;5013445;28;20020;-80
2022/07/26 07:37:27;;;;;;;6.40;1.23;;;19.40;99.90;;;;;;5013902;28;20034;-80
2022/07/26 07:39:53;;;;;;;2.20;1.00;;;19.50;99.90;;;;;;5009397;28;20509;-80
2022/07/26 07:42:18;;;;;;;4.43;0.90;;;19.90;99.90;;;;;;5014032;28;20062;-80
2022/07/26 07:44:45;;;;;;;2.75;0.70;;;20.00;99.90;;;;;;5013301;28;20022;-80
2022/07/26 07:47:10;;;;;;;3.03;0.90;;;19.90;99.90;;;;;;5022650;28;20120;-79
2022/07/26 07:49:36;;;;;;;2.05;0.90;;;19.90;99.90;;;;;;5021106;28;20147;-80
2022/07/26 07:52:03;;;;;;;2.42;1.00;;;19.90;99.90;;;;;;5018173;28;20021;-80
2022/07/26 07:54:28;;;;;;;2.72;0.90;;;19.80;99.90;;;;;;5021324;28;20028;-81
2022/07/26 07:56:55;;;;;;;4.20;0.65;;;19.80;99.90;;;;;;5019574;28;20014;-82
2022/07/26 07:59:21;;;;;;;1.50;0.68;;;19.50;99.90;;;;;;5012903;28;20021;-82
2022/07/26 08:01:47;;;;;;;2.83;0.95;;;19.20;99.90;;;;;;5055822;23;20052;-75
2022/07/26 08:04:13;;;;;;;2.38;0.80;;;19.40;99.90;;;;;;5029894;28;20025;-74
2022/07/26 08:06:39;;;;;;;3.90;0.90;;;19.60;99.90;;;;;;5031238;28;20475;-74
2022/07/26 08:09:05;;;;;;;5.75;1.00;;;19.80;99.90;;;;;;5031030;28;20075;-75
2022/07/26 08:11:31;;;;;;;4.40;0.80;;;20.10;99.90;;;;;;5032249;28;20029;-76
2022/07/26 08:13:56;;;;;;;4.85;0.90;;;20.00;99.90;;;;;;5031539;28;20036;-76
2022/07/26 08:16:22;;;;;;;3.90;1.10;;;20.00;99.90;;;;;;5030942;28;20025;-76
2022/07/26 08:18:48;;;;;;;1.85;0.80;;;20.00;99.90;;;;;;5031755;28;20030;-76
2022/07/26 08:21:14;;;;;;;2.47;1.08;;;20.20;99.90;;;;;;5031454;28;20027;-76
2022/07/26 08:23:39;;;;;;;3.00;0.82;;;20.50;99.90;;;;;;5031590;28;20025;-76
2022/07/26 08:26:05;;;;;;;2.03;0.70;;;20.80;96.80;;;;;;5032141;28;20025;-76
2022/07/26 08:28:31;;;;;;;1.48;0.80;;;21.00;95.90;;;;;;5030742;28;20388;-76
2022/07/26 08:30:57;;;;;;;3.33;0.80;;;20.90;97.70;;;;;;5031822;28;20025;-76
2022/07/26 08:33:22;;;;;;;3.67;1.23;;;21.30;95.80;;;;;;5023949;28;20026;-76
2022/07/26 08:35:48;;;;;;;3.58;0.93;;;21.60;91.80;;;;;;5013363;28;20014;-76
2022/07/26 08:38:14;;;;;;;2.95;0.80;;;22.00;91.20;;;;;;5013268;28;20037;-76
2022/07/26 08:40:40;;;;;;;1.50;0.65;;;22.20;82.10;;;;;;5012948;28;20022;-77
2022/07/26 08:43:07;;;;;;;5.40;1.35;;;22.20;80.60;;;;;;5012652;28;20164;-77
2022/07/26 08:45:33;;;;;;;0.98;0.50;;;22.40;78.30;;;;;;5012323;28;20101;-76
2022/07/26 08:48:00;;;;;;;1.15;0.60;;;22.90;79.80;;;;;;5013128;28;20550;-76
2022/07/26 08:50:27;;;;;;;1.40;0.63;;;23.00;69.80;;;;;;5031039;28;20038;-79
2022/07/26 08:52:58;;;;;;;2.80;0.70;;;23.20;71.60;;;;;;5030650;28;20049;-79
2022/07/26 08:55:24;;;;;;;3.50;0.63;;;23.40;69.60;;;;;;5030733;28;20104;-79
2022/07/26 08:57:49;;;;;;;1.73;0.50;;;23.60;66.10;;;;;;5025580;28;20133;-79
2022/07/26 09:00:15;;;;;;;1.42;0.40;;;23.60;68.60;;;;;;5017861;28;20029;-79
2022/07/26 09:02:41;;;;;;;1.27;0.70;;;23.80;66.90;;;;;;5020165;28;20398;-77
2022/07/26 09:05:07;;;;;;;0.90;0.50;;;23.50;66.20;;;;;;5012532;28;20014;-78
2022/07/26 09:07:33;;;;;;;1.83;0.60;;;23.10;69.10;;;;;;5012169;28;20284;-78
2022/07/26 09:10:05;;;;;;;1.60;0.50;;;22.80;79.80;;;;;;5027572;28;20025;-77
2022/07/26 09:12:32;;;;;;;4.15;0.85;;;22.70;75.00;;;;;;5019890;28;20021;-77
2022/07/26 09:14:59;;;;;;;1.40;0.70;;;22.60;83.00;;;;;;5027342;28;20636;-78
2022/07/26 09:17:39;;;;;;;1.10;0.60;;;22.00;74.90;;;;;;5021675;28;20037;-77
2022/07/26 09:20:11;;;;;;;4.68;1.08;;;21.50;86.60;;;;;;5022148;28;20021;-77
2022/07/26 09:22:38;;;;;;;2.67;0.65;;;21.50;90.80;;;;;;5021860;28;20033;-77
2022/07/26 09:25:19;;;;;;;2.63;0.60;;;21.30;90.70;;;;;;5020399;28;20021;-78
2022/07/26 09:27:45;;;;;;;2.80;0.77;;;21.30;93.60;;;;;;5027664;28;20107;-77
2022/07/26 09:32:57;;;;;;;2.60;0.70;;;21.10;92.20;;;;;;5038798;28;20102;-87
2022/07/26 09:35:23;;;;;;;0.80;0.50;;;21.10;84.80;;;;;;5037993;28;20379;-88
2022/07/26 09:37:49;;;;;;;3.05;0.60;;;21.10;90.70;;;;;;5040228;28;20027;-87
2022/07/26 09:40:17;;;;;;;1.25;0.77;;;20.90;88.20;;;;;;5040514;28;20367;-87
2022/07/26 09:43:15;;;;;;;1.15;0.70;;;21.00;87.90;;;;;;5025647;28;20032;-86
2022/07/26 09:45:42;;;;;;;1.60;0.52;;;21.30;94.40;;;;;;5025021;28;20033;-87
2022/07/26 09:48:11;;;;;;;3.15;0.50;;;21.60;85.10;;;;;;5028366;28;20049;-86
2022/07/26 09:50:37;;;;;;;2.25;0.80;;;21.60;81.50;;;;;;5028692;28;20355;-87
2022/07/26 09:53:06;;;;;;;0.93;0.47;;;21.70;85.40;;;;;;5029736;28;20040;-86
2022/07/26 09:55:55;;;;;;;1.48;0.52;;;21.80;90.90;;;;;;5029140;28;20029;-87
2022/07/26 09:58:22;;;;;;;4.10;0.60;;;22.10;77.50;;;;;;5022230;28;20041;-87
2022/07/26 10:00:48;;;;;;;0.55;0.40;;;22.40;84.30;;;;;;5030192;28;20040;-88
2022/07/26 10:03:14;;;;;;;1.13;0.45;;;22.70;74.50;;;;;;5028275;28;20390;-87
2022/07/26 10:05:40;;;;;;;0.63;0.40;;;22.70;71.20;;;;;;5028142;28;20488;-87
2022/07/26 10:08:07;;;;;;;3.40;0.50;;;22.80;74.10;;;;;;5028537;28;20764;-86
2022/07/26 10:10:38;;;;;;;1.95;0.45;;;23.00;79.40;;;;;;5028910;28;20044;-87
2022/07/26 10:13:05;;;;;;;1.10;0.60;;;23.40;72.00;;;;;;5028826;28;20021;-83
2022/07/26 10:15:46;;;;;;;1.80;0.40;;;23.70;66.20;;;;;;5028613;28;20030;-85
2022/07/26 10:18:33;;;;;;;0.68;0.40;;;23.90;65.90;;;;;;5027776;28;20026;-85
2022/07/26 10:20:59;;;;;;;2.33;0.50;;;24.30;68.20;;;;;;5029788;28;20029;-86
2022/07/26 10:23:39;;;;;;;2.75;0.57;;;24.30;61.70;;;;;;5027821;28;20030;-84
2022/07/26 10:26:10;;;;;;;0.82;0.40;;;24.90;65.00;;;;;;5027900;28;20026;-84
2022/07/26 10:28:37;;;;;;;1.73;0.35;;;25.80;60.70;;;;;;5029485;28;20025;-87
2022/07/26 10:31:22;;;;;;;0.65;0.40;;;26.00;56.20;;;;;;5028969;28;20034;-84
2022/07/26 10:33:50;;;;;;;0.75;0.50;;;26.20;56.20;;;;;;5026653;28;20537;-86
2022/07/26 10:36:21;;;;;;;0.98;0.40;;;26.20;53.30;;;;;;5027246;28;20044;-85
2022/07/26 10:39:01;;;;;;;3.50;0.55;;;25.80;53.80;;;;;;5027759;28;20029;-86
2022/07/26 10:41:32;;;;;;;3.30;0.75;;;25.60;54.90;;;;;;5030458;28;20044;-87
2022/07/26 10:44:17;;;;;;;;;;;25.70;55.70;;;;;;5015727;28;20022;-87
2022/07/26 10:47:08;;;;;;;0.90;0.60;;;25.50;56.40;;;;;;5037088;28;19916;-90
2022/07/26 10:49:37;;;;;;;1.48;0.65;;;25.40;54.10;;;;;;5034891;28;20048;-89
2022/07/26 10:52:06;;;;;;;1.45;0.40;;;24.90;56.80;;;;;;5035404;28;20462;-89
2022/07/26 10:54:51;;;;;;;0.57;0.40;;;25.10;61.60;;;;;;5036832;28;20132;-88
2022/07/26 10:57:17;;;;;;;2.67;0.70;;;25.20;59.60;;;;;;5034438;28;20040;-85
2022/07/26 10:59:43;;;;;;;2.88;0.75;;;25.40;62.20;;;;;;5034112;28;20059;-85
2022/07/26 11:02:19;;;;;;;0.73;0.32;;;25.80;57.80;;;;;;5052691;23;20128;-78
2022/07/26 11:04:45;;;;;;;3.45;0.47;;;26.10;57.40;;;;;;5027520;28;20025;-78
2022/07/26 11:07:13;;;;;;;0.70;0.40;;;25.50;54.70;;;;;;5022816;28;20076;-78
2022/07/26 11:09:40;;;;;;;2.25;0.50;;;25.50;55.70;;;;;;5023895;28;20056;-79
2022/07/26 11:12:18;;;;;;;0.70;0.40;;;24.90;59.20;;;;;;5022925;28;20025;-79
2022/07/26 11:14:44;;;;;;;2.70;0.45;;;24.50;57.80;;;;;;5020696;28;20021;-80
2022/07/26 11:17:27;;;;;;;1.00;0.40;;;24.60;60.60;;;;;;5024683;28;20479;-79
2022/07/26 11:19:54;;;;;;;1.17;0.40;;;24.70;59.80;;;;;;5022870;28;20030;-79
2022/07/26 11:22:20;;;;;;;3.13;0.40;;;24.60;59.10;;;;;;5021328;28;20030;-80
2022/07/26 11:24:46;;;;;;;0.95;0.47;;;24.80;60.50;;;;;;5017249;28;20026;-79
2022/07/26 11:27:12;;;;;;;0.88;0.40;;;24.90;59.20;;;;;;5019809;28;20378;-78
2022/07/26 11:29:38;;;;;;;2.15;0.50;;;24.80;59.90;;;;;;5022392;28;20470;-78
2022/07/26 11:32:04;;;;;;;1.75;0.40;;;24.90;59.50;;;;;;5023321;28;20112;-78
2022/07/26 11:34:32;;;;;;;0.77;0.30;;;24.90;59.40;;;;;;5014212;28;20137;-79
2022/07/26 11:37:01;;;;;;;1.85;0.60;;;25.00;57.40;;;;;;5018505;28;20046;-79
2022/07/26 11:39:32;;;;;;;0.93;0.40;;;25.40;57.50;;;;;;5023731;28;20041;-78
2022/07/26 11:42:04;;;;;;;0.55;0.30;;;25.50;58.50;;;;;;5026437;28;20144;-79
2022/07/26 11:44:30;;;;;;;0.30;0.30;;;25.20;57.80;;;;;;5025070;28;20029;-78
2022/07/26 11:46:56;;;;;;;1.35;0.52;;;25.20;57.60;;;;;;5023905;28;20116;-78
2022/07/26 11:49:27;;;;;;;0.88;0.47;;;25.10;57.00;;;;;;5017996;28;20092;-78
2022/07/26 11:52:00;;;;;;;1.45;0.70;;;24.60;58.50;;;;;;5023629;28;20036;-78
2022/07/26 11:54:31;;;;;;;2.83;0.77;;;24.20;60.00;;;;;;5019987;28;20030;-78
2022/07/26 11:57:02;;;;;;;0.45;0.43;;;23.70;62.30;;;;;;5019483;28;20109;-77
2022/07/26 11:59:33;;;;;;;3.63;0.68;;;23.50;65.20;;;;;;5020047;28;20088;-82
2022/07/26 12:02:01;;;;;;;0.75;0.50;;;23.30;64.90;;;;;;5046342;23;20057;-81
2022/07/26 12:04:36;;;;;;;3.53;1.00;;;23.10;64.90;;;;;;5027146;28;20458;-81
2022/07/26 12:07:14;;;;;;;1.20;0.50;;;23.10;69.60;;;;;;5022642;28;20034;-81
2022/07/26 12:09:51;;;;;;;2.40;0.68;;;23.00;70.40;;;;;;5027070;28;20474;-80
2022/07/26 12:12:22;;;;;;;3.08;0.70;;;22.70;69.90;;;;;;5026063;28;20032;-81
2022/07/26 12:14:55;;;;;;;1.27;0.82;;;22.60;73.10;;;;;;5010803;28;20022;-82
2022/07/26 12:17:21;;;;;;;2.05;0.85;;;22.60;75.00;;;;;;5009178;28;20117;-80
2022/07/26 12:19:47;;;;;;;1.95;0.80;;;22.50;73.90;;;;;;5011148;28;20129;-82
2022/07/26 12:22:21;;;;;;;2.97;0.95;;;22.50;79.10;;;;;;5011016;28;20521;-82
2022/07/26 12:24:56;;;;;;;2.35;0.90;;;22.60;77.10;;;;;;5008124;28;20495;-81
2022/07/26 12:27:24;;;;;;;3.88;0.77;;;22.40;75.70;;;;;;5009136;28;20391;-80
2022/07/26 12:29:50;;;;;;;3.33;0.95;;;22.20;77.20;;;;;;5009348;28;20068;-81
2022/07/26 12:32:21;;;;;;;2.60;0.60;;;21.90;81.60;;;;;;5009780;28;20394;-82
2022/07/26 12:35:02;;;;;;;2.40;0.95;;;21.90;86.60;;;;;;5008961;28;20696;-81
2022/07/26 12:37:29;;;;;;;5.63;0.90;;;21.80;83.10;;;;;;5009346;28;20040;-79
2022/07/26 12:39:59;;;;;;;2.20;0.90;;;21.80;85.00;;;;;;5004772;28;20026;-80
2022/07/26 12:42:31;;;;;;;4.35;1.17;;;21.80;88.20;;;;;;5010967;28;20534;-80
2022/07/26 12:44:58;;;;;;;1.45;0.80;;;21.80;88.00;;;;;;5009052;28;20018;-81
2022/07/26 12:47:27;;;;;;;1.42;0.82;;;21.90;88.20;;;;;;5008881;28;20534;-83
2022/07/26 12:49:53;;;;;;;2.05;1.08;;;22.30;87.30;;;;;;5003733;28;20030;-81
2022/07/26 12:52:21;;;;;;;1.02;0.80;;;22.90;87.50;;;;;;5007929;28;20041;-81
2022/07/26 12:54:49;;;;;;;2.38;0.90;;;23.40;75.70;;;;;;5011299;28;20382;-80
2022/07/26 12:57:15;;;;;;;3.03;0.93;;;23.70;76.90;;;;;;5007941;28;20044;-80
2022/07/26 12:59:42;;;;;;;0.98;0.65;;;24.00;71.10;;;;;;5005517;28;20053;-81